createdAt,value
2023-03-21T00:00:55.092Z,70.77
2023-03-21T00:01:59.562Z,70.17
2023-03-21T00:03:02.531Z,70.03
2023-03-21T00:04:06.391Z,70.24
2023-03-21T00:05:15.867Z,69.40
2023-03-21T00:06:19.898Z,69.41
2023-03-21T00:07:22.538Z,70.25
2023-03-21T00:08:27.952Z,70.54
2023-03-21T00:09:30.268Z,70.92
2023-03-21T00:10:41.522Z,70.57
2023-03-21T00:11:48.556Z,70.87
2023-03-21T00:12:55.580Z,71.78
2023-03-21T00:14:02.662Z,71.38
2023-03-21T00:15:08.236Z,71.78
2023-03-21T00:16:20.949Z,71.30
2023-03-21T00:17:31.307Z,71.06
2023-03-21T00:18:36.967Z,70.83
2023-03-21T00:19:41.612Z,71.23
2023-03-21T00:20:46.616Z,71.22
2023-03-21T00:22:06.957Z,71.44
2023-03-21T00:23:10.364Z,72.18
2023-03-21T00:24:14.636Z,72.11
2023-03-21T00:25:17.133Z,72.09
2023-03-21T00:26:22.658Z,71.97
2023-03-21T00:27:45.180Z,71.73
2023-03-21T00:28:52.063Z,72.31
2023-03-21T00:29:54.931Z,72.37
2023-03-21T00:31:01.717Z,73.11
2023-03-21T00:32:05.672Z,71.83
2023-03-21T00:33:22.004Z,72.41
2023-03-21T00:34:36.675Z,72.82
2023-03-21T00:36:05.813Z,72.75
2023-03-21T00:37:12.238Z,71.75
2023-03-21T00:38:15.952Z,71.67
2023-03-21T00:39:19.817Z,71.27
2023-03-21T00:40:31.136Z,71.45
2023-03-21T00:41:43.015Z,71.84
2023-03-21T00:42:47.464Z,72.30
2023-03-21T00:43:52.273Z,72.33
2023-03-21T00:44:54.768Z,72.72
2023-03-21T00:45:59.749Z,72.68
2023-03-21T00:47:18.551Z,72.29
2023-03-21T00:48:22.228Z,72.40
2023-03-21T00:49:25.530Z,72.32
2023-03-21T00:50:29.742Z,72.01
2023-03-21T00:51:32.349Z,72.83
2023-03-21T00:52:40.898Z,72.45
2023-03-21T00:53:45.082Z,72.54
2023-03-21T00:54:48.041Z,71.79
2023-03-21T00:55:51.922Z,71.74
2023-03-21T00:56:55.729Z,71.34
2023-03-21T00:58:02.644Z,71.93
2023-03-21T00:59:07.005Z,71.83
2023-03-21T01:00:13.422Z,71.89
2023-03-21T01:01:15.956Z,71.07
2023-03-21T01:02:23.234Z,70.90
2023-03-21T01:03:26.804Z,71.34
2023-03-21T01:04:30.451Z,71.38
2023-03-21T01:05:54.666Z,70.58
2023-03-21T01:06:58.297Z,70.64
2023-03-21T01:08:01.806Z,70.95
2023-03-21T01:09:05.484Z,71.75
2023-03-21T01:10:08.986Z,71.98
2023-03-21T01:11:14.652Z,71.96
2023-03-21T01:12:17.416Z,71.36
2023-03-21T01:13:24.469Z,71.12
2023-03-21T01:14:28.016Z,70.16
2023-03-21T01:15:31.205Z,70.40
2023-03-21T01:16:34.983Z,70.71
2023-03-21T01:17:37.707Z,70.36
2023-03-21T01:18:42.454Z,69.81
2023-03-21T01:19:51.998Z,70.03
2023-03-21T01:20:56.682Z,71.04
2023-03-21T01:22:00.641Z,72.01
2023-03-21T01:28:29.987Z,71.99
2023-03-21T01:29:33.870Z,72.79
2023-03-21T01:30:41.588Z,74.07
2023-03-21T01:31:45.987Z,74.13
2023-03-21T01:32:48.974Z,73.49
2023-03-21T01:33:52.561Z,73.40
2023-03-21T01:34:56.916Z,73.01
2023-03-21T01:36:12.664Z,72.49
2023-03-21T01:37:18.905Z,72.15
2023-03-21T01:38:22.773Z,73.31
2023-03-21T01:39:28.387Z,73.01
2023-03-21T01:40:33.753Z,73.36
2023-03-21T01:41:44.129Z,72.93
2023-03-21T01:42:49.358Z,72.39
2023-03-21T01:43:55.451Z,71.92
2023-03-21T01:45:00.621Z,71.59
2023-03-21T01:46:44.058Z,71.70
2023-03-21T01:47:54.919Z,72.76
2023-03-21T01:49:00.951Z,72.80
2023-03-21T01:50:06.499Z,72.54
2023-03-21T01:51:12.134Z,72.49
2023-03-21T01:52:33.563Z,73.25
2023-03-21T01:53:40.618Z,72.44
2023-03-21T01:54:45.090Z,72.42
2023-03-21T01:55:48.361Z,73.45
2023-03-21T01:56:54.402Z,72.64
2023-03-21T01:58:05.896Z,72.51
2023-03-21T01:59:17.578Z,72.33
2023-03-21T02:00:22.969Z,72.08
2023-03-21T02:01:26.699Z,71.60
2023-03-21T02:02:31.682Z,70.78
2023-03-21T02:03:38.486Z,71.50
2023-03-21T02:04:41.751Z,71.30
2023-03-21T02:05:54.009Z,71.02
2023-03-21T02:07:02.253Z,70.06
2023-03-21T02:08:04.981Z,70.62
2023-03-21T02:09:13.381Z,70.31
2023-03-21T02:10:17.278Z,71.19
2023-03-21T02:11:27.182Z,71.27
2023-03-21T02:12:29.683Z,71.85
2023-03-21T02:13:33.321Z,71.73
2023-03-21T02:14:40.040Z,72.65
2023-03-21T02:15:47.564Z,71.82
2023-03-21T02:17:05.390Z,71.25
2023-03-21T02:18:14.920Z,72.81
2023-03-21T02:19:53.354Z,72.96
2023-03-21T02:21:33.629Z,72.74
2023-03-21T02:23:05.075Z,72.88
2023-03-21T02:24:29.812Z,72.88
2023-03-21T02:25:56.082Z,72.98
2023-03-21T02:27:09.151Z,72.72
2023-03-21T02:28:21.392Z,72.70
2023-03-21T02:29:41.176Z,72.37
2023-03-21T02:31:06.998Z,71.61
2023-03-21T02:32:34.870Z,70.96
2023-03-21T02:34:13.119Z,71.05
2023-03-21T02:35:39.226Z,71.36
2023-03-21T02:37:28.895Z,70.92
2023-03-21T02:38:41.378Z,71.11
2023-03-21T02:40:02.652Z,70.60
2023-03-21T02:41:17.985Z,70.32
2023-03-21T02:42:28.406Z,70.98
2023-03-21T02:43:39.750Z,70.97
2023-03-21T02:44:48.062Z,71.02
2023-03-21T02:45:54.463Z,70.65
2023-03-21T02:47:06.401Z,70.20
2023-03-21T02:48:25.573Z,70.04
2023-03-21T02:49:34.745Z,69.93
2023-03-21T02:50:43.721Z,69.13
2023-03-21T02:51:49.123Z,69.36
2023-03-21T02:52:54.685Z,69.00
2023-03-21T02:54:29.936Z,68.79
2023-03-21T02:55:29.260Z,70.30
2023-03-21T02:56:33.847Z,71.05
2023-03-21T02:57:43.290Z,71.53
2023-03-21T02:58:48.865Z,71.40
2023-03-21T02:59:57.051Z,71.52
2023-03-21T03:01:03.991Z,71.26
2023-03-21T03:02:06.692Z,71.43
2023-03-21T03:03:14.185Z,71.46
2023-03-21T03:04:22.573Z,71.91
2023-03-21T03:05:28.546Z,72.39
2023-03-21T03:06:44.339Z,71.57
2023-03-21T03:08:08.029Z,71.19
2023-03-21T03:09:30.692Z,70.74
2023-03-21T03:10:44.645Z,70.38
2023-03-21T03:11:52.828Z,71.08
2023-03-21T03:13:06.213Z,71.28
2023-03-21T03:14:50.025Z,71.39
2023-03-21T03:16:05.423Z,71.36
2023-03-21T03:17:29.818Z,72.67
2023-03-21T03:18:43.240Z,73.15
2023-03-21T03:20:04.309Z,72.36
2023-03-21T03:21:15.018Z,72.10
2023-03-21T03:22:24.053Z,71.94
2023-03-21T03:23:36.160Z,72.10
2023-03-21T03:24:48.065Z,72.18
2023-03-21T03:25:56.809Z,72.02
2023-03-21T03:27:02.333Z,71.52
2023-03-21T03:28:08.416Z,70.98
2023-03-21T03:29:15.106Z,70.78
2023-03-21T03:30:19.452Z,70.87
2023-03-21T03:31:26.385Z,71.00
2023-03-21T03:32:36.790Z,70.47
2023-03-21T03:33:44.233Z,70.49
2023-03-21T03:34:56.696Z,70.32
2023-03-21T03:36:05.456Z,69.85
2023-03-21T03:37:12.750Z,69.50
2023-03-21T03:38:15.862Z,69.91
2023-03-21T03:39:21.028Z,69.97
2023-03-21T03:40:29.211Z,70.09
2023-03-21T03:42:03.089Z,70.59
2023-03-21T03:43:03.583Z,70.82
2023-03-21T03:44:07.282Z,70.80
2023-03-21T03:45:11.575Z,70.77
2023-03-21T03:46:19.596Z,71.70
2023-03-21T03:47:33.885Z,71.92
2023-03-21T03:48:48.367Z,71.40
2023-03-21T03:49:57.071Z,70.92
2023-03-21T03:51:06.209Z,70.87
2023-03-21T03:52:14.551Z,70.13
2023-03-21T03:53:23.564Z,70.94
2023-03-21T03:54:31.191Z,71.28
2023-03-21T03:55:37.019Z,71.32
2023-03-21T03:56:40.638Z,71.10
2023-03-21T03:57:44.721Z,71.09
2023-03-21T03:58:47.465Z,71.12
2023-03-21T03:59:51.116Z,70.29
2023-03-21T04:00:55.204Z,70.03
2023-03-21T04:01:58.936Z,70.30
2023-03-21T04:03:02.295Z,69.45
2023-03-21T04:04:13.373Z,69.21
2023-03-21T04:05:21.562Z,69.16
2023-03-21T04:06:25.188Z,68.92
2023-03-21T04:07:28.001Z,69.63
2023-03-21T04:08:32.231Z,68.89
2023-03-21T04:09:44.257Z,68.37
2023-03-21T04:10:48.529Z,69.53
2023-03-21T04:11:51.054Z,69.81
2023-03-21T04:12:54.854Z,69.95
2023-03-21T04:13:59.400Z,69.46
2023-03-21T04:15:10.785Z,69.82
2023-03-21T04:16:14.467Z,69.91
2023-03-21T04:17:19.603Z,69.54
2023-03-21T04:18:23.246Z,70.59
2023-03-21T04:19:27.342Z,71.03
2023-03-21T04:20:36.562Z,70.36
2023-03-21T04:21:41.897Z,69.99
2023-03-21T04:22:44.990Z,69.69
2023-03-21T04:23:48.813Z,69.57
2023-03-21T04:24:53.479Z,69.62
2023-03-21T04:25:57.549Z,68.87
2023-03-21T04:27:00.515Z,67.97
2023-03-21T04:28:04.427Z,67.82
2023-03-21T04:29:08.411Z,67.93
2023-03-21T04:30:12.505Z,67.43
2023-03-21T04:31:25.592Z,67.65
2023-03-21T04:32:29.066Z,68.15
2023-03-21T04:33:32.637Z,68.88
2023-03-21T04:34:40.463Z,69.22
2023-03-21T04:35:45.820Z,68.86
2023-03-21T04:36:49.706Z,68.75
2023-03-21T04:37:52.195Z,68.93
2023-03-21T04:38:57.475Z,69.29
2023-03-21T04:40:04.153Z,69.11
2023-03-21T04:41:08.333Z,69.56
2023-03-21T04:42:11.049Z,69.70
2023-03-21T04:43:14.588Z,68.69
2023-03-21T04:44:18.178Z,70.15
2023-03-21T04:45:21.827Z,70.17
2023-03-21T04:46:24.669Z,69.90
2023-03-21T04:47:28.341Z,69.85
2023-03-21T04:48:31.080Z,70.66
2023-03-21T04:49:34.810Z,70.00
2023-03-21T04:50:37.444Z,70.08
2023-03-21T04:51:41.178Z,70.73
2023-03-21T04:52:43.887Z,69.07
2023-03-21T04:53:49.628Z,68.80
2023-03-21T04:54:52.057Z,69.14
2023-03-21T04:55:57.765Z,68.69
2023-03-21T04:57:00.260Z,68.77
2023-03-21T04:58:03.723Z,69.83
2023-03-21T04:59:08.583Z,68.49
2023-03-21T05:00:15.281Z,68.39
2023-03-21T05:01:20.386Z,68.15
2023-03-21T05:02:24.581Z,67.81
2023-03-21T05:03:28.923Z,67.67
2023-03-21T05:04:32.972Z,68.15
2023-03-21T05:05:36.869Z,69.13
2023-03-21T05:06:42.548Z,68.84
2023-03-21T05:07:45.080Z,69.54
2023-03-21T05:08:48.766Z,70.45
2023-03-21T05:09:51.359Z,70.30
2023-03-21T05:10:56.512Z,70.18
2023-03-21T05:11:59.283Z,69.38
2023-03-21T05:13:02.965Z,69.92
2023-03-21T05:14:06.073Z,70.60
2023-03-21T05:15:10.891Z,69.69
2023-03-21T05:16:14.025Z,70.02
2023-03-21T05:17:23.457Z,69.13
2023-03-21T05:18:26.469Z,69.16
2023-03-21T05:19:35.358Z,69.95
2023-03-21T05:20:39.067Z,68.84
2023-03-21T05:21:43.678Z,68.88
2023-03-21T05:22:46.598Z,69.78
2023-03-21T05:23:55.078Z,69.98
2023-03-21T05:24:57.732Z,70.01
2023-03-21T05:26:02.921Z,70.26
2023-03-21T05:27:06.049Z,70.53
2023-03-21T05:28:09.983Z,70.54
2023-03-21T05:29:13.634Z,70.92
2023-03-21T05:30:18.773Z,71.30
2023-03-21T05:31:21.966Z,70.96
2023-03-21T05:32:25.676Z,71.36
2023-03-21T05:33:27.963Z,71.71
2023-03-21T05:34:32.301Z,71.63
2023-03-21T05:35:35.021Z,72.11
2023-03-21T05:36:39.176Z,71.47
2023-03-21T05:37:42.770Z,71.22
2023-03-21T05:38:46.316Z,71.10
2023-03-21T05:39:50.402Z,71.29
2023-03-21T05:40:55.850Z,70.06
2023-03-21T05:41:59.793Z,71.03
2023-03-21T05:43:03.491Z,69.52
2023-03-21T05:44:05.986Z,70.14
2023-03-21T05:45:10.072Z,70.21
2023-03-21T05:46:12.666Z,70.90
2023-03-21T05:47:17.692Z,70.75
2023-03-21T05:48:20.664Z,70.33
2023-03-21T05:49:24.709Z,70.25
2023-03-21T05:50:27.582Z,70.34
2023-03-21T05:51:31.142Z,69.83
2023-03-21T05:52:33.950Z,70.27
2023-03-21T05:53:37.868Z,68.98
2023-03-21T05:54:40.374Z,69.40
2023-03-21T05:55:43.861Z,69.44
2023-03-21T05:56:46.363Z,69.21
2023-03-21T05:57:51.425Z,69.44
2023-03-21T05:58:54.009Z,69.33
2023-03-21T05:59:57.678Z,69.54
2023-03-21T06:01:00.469Z,69.34
2023-03-21T06:02:04.041Z,68.62
2023-03-21T06:03:06.548Z,68.71
2023-03-21T06:04:10.141Z,69.43
2023-03-21T06:05:12.644Z,69.76
2023-03-21T06:06:16.287Z,70.52
2023-03-21T06:07:19.471Z,71.30
2023-03-21T06:08:23.069Z,71.09
2023-03-21T06:09:26.740Z,70.68
2023-03-21T06:10:30.953Z,70.14
2023-03-21T06:11:36.384Z,70.09
2023-03-21T06:12:39.853Z,70.45
2023-03-21T06:13:43.767Z,71.49
2023-03-21T06:14:47.380Z,72.08
2023-03-21T06:15:49.773Z,72.70
2023-03-21T06:16:54.187Z,72.69
2023-03-21T06:17:58.062Z,72.50
2023-03-21T06:19:01.355Z,72.31
2023-03-21T06:20:07.185Z,71.90
2023-03-21T06:21:09.593Z,71.71
2023-03-21T06:22:13.853Z,72.60
2023-03-21T06:23:16.601Z,72.53
2023-03-21T06:24:20.273Z,73.21
2023-03-21T06:25:22.868Z,73.39
2023-03-21T06:26:26.515Z,72.87
2023-03-21T06:27:29.884Z,72.54
2023-03-21T06:28:32.751Z,71.62
2023-03-21T06:29:38.875Z,72.01
2023-03-21T06:30:42.306Z,71.29
2023-03-21T06:31:44.848Z,70.83
2023-03-21T06:32:48.495Z,72.19
2023-03-21T06:33:51.778Z,72.83
2023-03-21T06:34:55.569Z,72.39
2023-03-21T06:35:59.570Z,71.84
2023-03-21T06:37:04.201Z,71.89
2023-03-21T06:38:07.290Z,72.72
2023-03-21T06:39:10.798Z,73.43
2023-03-21T06:40:13.961Z,73.94
2023-03-21T06:41:17.923Z,73.33
2023-03-21T06:42:20.586Z,73.25
2023-03-21T06:43:24.312Z,72.59
2023-03-21T06:44:27.400Z,72.24
2023-03-21T06:45:32.321Z,71.83
2023-03-21T06:46:34.826Z,71.58
2023-03-21T06:47:38.606Z,70.97
2023-03-21T06:48:44.657Z,71.05
2023-03-21T06:49:48.123Z,70.89
2023-03-21T06:50:51.263Z,70.06
2023-03-21T06:51:54.888Z,69.81
2023-03-21T06:52:57.746Z,69.64
2023-03-21T06:54:01.515Z,69.23
2023-03-21T06:55:04.739Z,69.63
2023-03-21T06:56:09.244Z,69.03
2023-03-21T06:57:13.832Z,69.00
2023-03-21T06:58:16.084Z,68.98
2023-03-21T06:59:19.948Z,68.74
2023-03-21T07:00:23.618Z,68.49
2023-03-21T07:01:30.784Z,69.95
2023-03-21T07:02:33.280Z,69.18
2023-03-21T07:03:38.048Z,70.68
2023-03-21T07:04:40.919Z,71.25
2023-03-21T07:05:44.949Z,71.64
2023-03-21T07:06:48.394Z,71.51
2023-03-21T07:07:51.010Z,72.28
2023-03-21T07:08:55.069Z,72.25
2023-03-21T07:09:57.561Z,72.22
2023-03-21T07:11:01.638Z,71.48
2023-03-21T07:12:04.453Z,71.73
2023-03-21T07:13:08.821Z,72.22
2023-03-21T07:14:11.734Z,71.35
2023-03-21T07:15:15.131Z,71.54
2023-03-21T07:16:19.353Z,71.54
2023-03-21T07:17:24.560Z,70.90
2023-03-21T07:18:27.050Z,70.96
2023-03-21T07:19:31.026Z,69.29
2023-03-21T07:20:33.611Z,67.69
2023-03-21T07:21:37.161Z,66.70
2023-03-21T07:22:39.826Z,65.87
2023-03-21T07:23:43.623Z,65.09
2023-03-21T07:24:55.843Z,64.44
2023-03-21T07:26:06.944Z,63.08
2023-03-21T07:27:09.335Z,62.15
2023-03-21T07:28:13.083Z,61.16
2023-03-21T07:29:17.730Z,60.98
2023-03-21T07:30:21.792Z,59.80
2023-03-21T07:31:27.035Z,59.24
2023-03-21T07:32:33.997Z,59.78
2023-03-21T07:33:37.618Z,59.29
2023-03-21T07:34:40.773Z,58.11
2023-03-21T07:35:44.622Z,57.14
2023-03-21T07:36:48.199Z,56.28
2023-03-21T07:37:50.929Z,55.70
2023-03-21T07:38:54.665Z,55.20
2023-03-21T07:39:57.471Z,54.84
2023-03-21T07:41:01.741Z,53.94
2023-03-21T07:42:05.320Z,53.81
2023-03-21T07:43:08.007Z,54.01
2023-03-21T07:44:11.868Z,53.27
2023-03-21T07:45:16.633Z,53.18
2023-03-21T07:46:21.209Z,52.11
2023-03-21T07:47:24.957Z,51.83
2023-03-21T07:48:29.871Z,52.05
2023-03-21T07:49:33.709Z,51.45
2023-03-21T07:50:37.376Z,50.48
2023-03-21T07:51:39.644Z,49.93
2023-03-21T07:52:43.594Z,49.62
2023-03-21T07:53:48.868Z,49.24
2023-03-21T07:54:51.709Z,48.21
2023-03-21T07:55:56.743Z,49.41
2023-03-21T07:56:59.938Z,49.20
2023-03-21T07:58:03.646Z,49.62
2023-03-21T07:59:08.362Z,49.67
2023-03-21T08:00:13.853Z,51.87
2023-03-21T08:01:17.807Z,52.16
2023-03-21T08:02:21.395Z,52.67
2023-03-21T08:03:24.283Z,51.06
2023-03-21T08:04:29.297Z,50.91
2023-03-21T08:05:35.801Z,50.69
2023-03-21T08:06:40.215Z,50.60
2023-03-21T08:07:42.598Z,50.05
2023-03-21T08:08:46.336Z,49.34
2023-03-21T08:09:48.780Z,48.69
2023-03-21T08:10:52.351Z,50.75
2023-03-21T08:11:54.681Z,50.64
2023-03-21T08:12:58.369Z,50.37
2023-03-21T08:14:03.018Z,50.72
2023-03-21T08:15:06.211Z,50.18
2023-03-21T08:16:10.801Z,49.47
2023-03-21T08:17:13.213Z,49.13
2023-03-21T08:18:18.108Z,49.67
2023-03-21T08:19:22.050Z,50.28
2023-03-21T08:20:26.591Z,48.89
2023-03-21T08:21:31.000Z,48.18
2023-03-21T08:22:34.616Z,47.31
2023-03-21T08:23:38.016Z,46.40
2023-03-21T08:24:41.674Z,47.95
2023-03-21T08:25:44.041Z,48.83
2023-03-21T08:26:47.771Z,48.57
2023-03-21T08:27:51.890Z,50.15
2023-03-21T08:28:55.978Z,51.84
2023-03-21T08:29:58.700Z,51.60
2023-03-21T08:31:02.462Z,52.14
2023-03-21T08:32:05.300Z,51.91
2023-03-21T08:33:08.823Z,51.32
2023-03-21T08:34:13.903Z,50.83
2023-03-21T08:35:20.678Z,49.48
2023-03-21T08:36:26.327Z,48.93
2023-03-21T08:37:29.573Z,47.93
2023-03-21T08:38:33.671Z,48.46
2023-03-21T08:39:37.025Z,49.73
2023-03-21T08:40:41.748Z,50.32
2023-03-21T08:41:45.135Z,49.21
2023-03-21T08:42:49.050Z,49.65
2023-03-21T08:43:52.955Z,50.17
2023-03-21T08:44:55.630Z,51.15
2023-03-21T08:45:59.243Z,51.04
2023-03-21T08:47:01.712Z,50.52
2023-03-21T08:48:05.696Z,50.71
2023-03-21T08:49:08.501Z,50.44
2023-03-21T08:50:14.527Z,50.41
2023-03-21T08:51:17.963Z,51.55
2023-03-21T08:52:22.200Z,52.38
2023-03-21T08:53:25.792Z,51.34
2023-03-21T08:54:29.103Z,51.64
2023-03-21T08:55:33.438Z,50.61
2023-03-21T08:56:37.482Z,49.62
2023-03-21T08:57:41.878Z,48.98
2023-03-21T08:58:44.768Z,47.43
2023-03-21T08:59:48.401Z,47.33
2023-03-21T09:00:52.359Z,47.45
2023-03-21T09:01:54.778Z,47.53
2023-03-21T09:02:59.085Z,50.08
2023-03-21T09:04:01.446Z,48.53
2023-03-21T09:05:06.354Z,50.74
2023-03-21T09:06:12.299Z,49.28
2023-03-21T09:07:17.173Z,47.79
2023-03-21T09:08:23.544Z,46.06
2023-03-21T09:09:25.920Z,45.68
2023-03-21T09:10:29.738Z,45.43
2023-03-21T09:11:32.360Z,45.08
2023-03-21T09:12:36.107Z,44.91
2023-03-21T09:13:39.599Z,44.01
2023-03-21T09:14:42.342Z,44.80
2023-03-21T09:15:46.750Z,45.97
2023-03-21T09:16:49.128Z,45.85
2023-03-21T09:17:54.734Z,47.24
2023-03-21T09:18:59.401Z,47.51
2023-03-21T09:20:05.379Z,46.02
2023-03-21T09:21:12.979Z,46.61
2023-03-21T09:22:18.210Z,47.42
2023-03-21T09:23:21.967Z,46.26
2023-03-21T09:24:26.580Z,45.78
2023-03-21T09:25:31.856Z,45.88
2023-03-21T09:26:36.156Z,45.85
2023-03-21T09:27:40.059Z,46.10
2023-03-21T09:28:44.699Z,44.74
2023-03-21T09:29:47.128Z,44.80
2023-03-21T09:30:50.568Z,46.22
2023-03-21T09:31:54.170Z,43.93
2023-03-21T09:32:57.997Z,44.67
2023-03-21T09:34:02.119Z,44.80
2023-03-21T09:35:07.335Z,43.32
2023-03-21T09:36:14.434Z,43.03
2023-03-21T09:37:18.074Z,43.54
2023-03-21T09:38:22.543Z,44.03
2023-03-21T09:39:27.331Z,44.15
2023-03-21T09:40:44.423Z,45.39
2023-03-21T09:42:01.912Z,46.69
2023-03-21T09:43:16.443Z,46.47
2023-03-21T09:44:34.696Z,48.05
2023-03-21T09:45:45.946Z,47.55
2023-03-21T09:46:55.970Z,47.73
2023-03-21T09:48:00.167Z,47.82
2023-03-21T09:49:08.155Z,47.63
2023-03-21T09:50:17.367Z,46.84
2023-03-21T09:51:21.070Z,46.64
2023-03-21T09:52:29.213Z,45.41
2023-03-21T09:53:39.062Z,45.75
2023-03-21T09:54:45.102Z,46.00
2023-03-21T09:55:47.663Z,45.33
2023-03-21T09:56:54.764Z,44.15
2023-03-21T09:58:05.146Z,43.97
2023-03-21T09:59:11.770Z,43.42
2023-03-21T10:00:21.648Z,44.28
2023-03-21T10:01:30.145Z,43.62
2023-03-21T10:02:39.292Z,42.65
2023-03-21T10:03:44.960Z,42.34
2023-03-21T10:04:47.736Z,41.65
2023-03-21T10:05:57.698Z,40.95
2023-03-21T10:07:04.547Z,40.09
2023-03-21T10:08:12.079Z,41.01
2023-03-21T10:09:21.747Z,42.33
2023-03-21T10:10:29.034Z,42.61
2023-03-21T10:11:40.805Z,41.12
2023-03-21T10:12:46.300Z,42.20
2023-03-21T10:13:56.547Z,41.45
2023-03-21T10:15:02.124Z,41.88
2023-03-21T10:16:16.035Z,41.82
2023-03-21T10:17:28.778Z,41.18
2023-03-21T10:18:34.553Z,41.89
2023-03-21T10:19:37.221Z,43.09
2023-03-21T10:20:43.840Z,44.46
2023-03-21T10:22:00.270Z,44.81
2023-03-21T10:23:07.245Z,45.86
2023-03-21T10:24:12.606Z,46.01
2023-03-21T10:25:21.589Z,45.88
2023-03-21T10:26:28.886Z,44.70
2023-03-21T10:27:31.970Z,43.34
2023-03-21T10:28:52.476Z,43.96
2023-03-21T10:29:57.696Z,45.53
2023-03-21T10:31:04.551Z,45.89
2023-03-21T10:32:11.260Z,46.39
2023-03-21T10:33:16.499Z,46.33
2023-03-21T10:34:26.707Z,46.41
2023-03-21T10:35:30.372Z,46.01
2023-03-21T10:36:36.232Z,46.76
2023-03-21T10:37:39.053Z,46.33
2023-03-21T10:38:47.048Z,46.20
2023-03-21T10:39:52.467Z,47.05
2023-03-21T10:40:56.798Z,45.94
2023-03-21T10:42:00.661Z,44.36
2023-03-21T10:43:33.511Z,45.26
2023-03-21T10:44:38.104Z,44.13
2023-03-21T10:45:41.035Z,44.67
2023-03-21T10:46:54.810Z,44.36
2023-03-21T10:47:58.596Z,46.03
2023-03-21T10:49:01.954Z,44.92
2023-03-21T10:50:09.805Z,45.73
2023-03-21T10:51:17.829Z,48.17
2023-03-21T10:52:23.802Z,46.93
2023-03-21T10:53:32.656Z,46.37
2023-03-21T10:54:36.935Z,46.16
2023-03-21T10:55:43.467Z,44.44
2023-03-21T10:56:57.598Z,43.46
2023-03-21T10:58:07.851Z,43.47
2023-03-21T10:59:20.436Z,43.70
2023-03-21T11:00:26.960Z,42.81
2023-03-21T11:01:36.967Z,44.74
2023-03-21T11:02:40.169Z,45.81
2023-03-21T11:03:47.056Z,46.11
2023-03-21T11:04:50.834Z,47.70
2023-03-21T11:05:57.376Z,48.91
2023-03-21T11:07:08.020Z,48.27
2023-03-21T11:08:15.203Z,49.68
2023-03-21T11:09:21.971Z,51.17
2023-03-21T11:10:30.795Z,52.07
2023-03-21T11:11:41.136Z,51.59
2023-03-21T11:12:49.987Z,51.71
2023-03-21T11:13:58.755Z,53.08
2023-03-21T11:15:27.484Z,53.14
2023-03-21T11:16:39.017Z,53.74
2023-03-21T11:17:45.534Z,53.61
2023-03-21T11:18:53.505Z,53.15
2023-03-21T11:19:59.871Z,51.84
2023-03-21T11:21:08.121Z,51.59
2023-03-21T11:22:13.272Z,51.25
2023-03-21T11:23:16.770Z,51.29
2023-03-21T11:24:21.961Z,51.38
2023-03-21T11:25:32.348Z,51.50
2023-03-21T11:26:38.610Z,51.76
2023-03-21T11:27:51.965Z,53.43
2023-03-21T11:28:55.441Z,53.13
2023-03-21T11:30:01.787Z,53.03
2023-03-21T11:31:05.788Z,52.72
2023-03-21T11:32:14.118Z,53.57
2023-03-21T11:33:19.366Z,53.78
2023-03-21T11:34:29.019Z,53.55
2023-03-21T11:35:35.904Z,53.91
2023-03-21T11:36:39.286Z,53.51
2023-03-21T11:37:46.603Z,54.11
2023-03-21T11:38:52.454Z,55.30
2023-03-21T11:40:09.412Z,55.41
2023-03-21T11:41:24.546Z,55.39
2023-03-21T11:42:29.531Z,56.40
2023-03-21T11:43:38.524Z,55.35
2023-03-21T11:44:44.866Z,54.51
2023-03-21T11:45:59.703Z,55.29
2023-03-21T11:47:03.212Z,55.35
2023-03-21T11:48:14.169Z,55.36
2023-03-21T11:49:16.817Z,54.82
2023-03-21T11:50:28.311Z,54.94
2023-03-21T11:51:39.823Z,55.69
2023-03-21T11:52:51.446Z,55.91
2023-03-21T11:54:06.801Z,55.54
2023-03-21T11:55:31.627Z,55.39
2023-03-21T11:56:38.675Z,54.85
2023-03-21T11:57:50.447Z,54.19
2023-03-21T11:59:17.668Z,55.27
2023-03-21T12:00:26.329Z,55.03
2023-03-21T12:01:38.965Z,55.66
2023-03-21T12:03:16.388Z,56.50
2023-03-21T12:04:38.318Z,56.05
2023-03-21T12:05:49.315Z,55.81
2023-03-21T12:06:56.200Z,55.60
2023-03-21T12:08:08.828Z,55.91
2023-03-21T12:09:35.681Z,55.21
2023-03-21T12:10:45.727Z,54.56
2023-03-21T12:12:01.775Z,54.54
2023-03-21T12:13:36.984Z,54.88
2023-03-21T12:14:52.859Z,55.05
2023-03-21T12:16:05.854Z,55.93
2023-03-21T12:17:23.808Z,57.07
2023-03-21T12:18:55.409Z,56.21
2023-03-21T12:20:15.149Z,56.14
2023-03-21T12:21:26.514Z,56.94
2023-03-21T12:22:35.474Z,57.53
2023-03-21T12:23:53.101Z,56.86
2023-03-21T12:24:57.864Z,57.35
2023-03-21T12:26:11.635Z,56.36
2023-03-21T12:27:25.610Z,57.23
2023-03-21T12:28:39.570Z,56.44
2023-03-21T12:30:00.316Z,55.92
2023-03-21T12:31:12.280Z,56.24
2023-03-21T12:32:45.528Z,55.66
2023-03-21T12:34:04.370Z,57.01
2023-03-21T12:35:21.277Z,55.99
2023-03-21T12:36:48.804Z,56.19
2023-03-21T12:38:02.790Z,57.01
2023-03-21T12:39:21.104Z,55.82
2023-03-21T12:40:40.399Z,54.87
2023-03-21T12:41:49.219Z,56.15
2023-03-21T12:43:20.114Z,56.78
2023-03-21T12:44:29.777Z,57.40
2023-03-21T12:45:46.777Z,57.46
2023-03-21T12:46:56.636Z,57.28
2023-03-21T12:48:09.394Z,58.00
2023-03-21T12:49:19.603Z,57.97
2023-03-21T12:50:27.018Z,58.40
2023-03-21T12:51:34.227Z,57.63
2023-03-21T12:52:42.561Z,58.59
2023-03-21T12:54:01.490Z,58.40
2023-03-21T12:55:15.079Z,59.96
2023-03-21T12:56:24.123Z,59.89
2023-03-21T12:57:33.608Z,58.93
2023-03-21T12:58:46.168Z,58.11
2023-03-21T12:59:56.287Z,58.15
2023-03-21T13:01:03.716Z,57.97
2023-03-21T13:02:19.804Z,58.77
2023-03-21T13:03:39.230Z,58.86
2023-03-21T13:04:49.175Z,58.98
2023-03-21T13:05:56.503Z,59.01
2023-03-21T13:07:03.746Z,60.00
2023-03-21T13:08:14.799Z,60.35
2023-03-21T13:09:28.472Z,60.65
2023-03-21T13:10:37.306Z,60.00
2023-03-21T13:11:40.664Z,59.83
2023-03-21T13:12:57.621Z,58.99
2023-03-21T13:14:06.596Z,59.29
2023-03-21T13:15:28.738Z,59.35
2023-03-21T13:16:38.233Z,57.88
2023-03-21T13:17:46.703Z,58.67
2023-03-21T13:19:00.482Z,59.64
2023-03-21T13:20:15.197Z,58.89
2023-03-21T13:21:26.927Z,59.64
2023-03-21T13:22:30.881Z,59.12
2023-03-21T13:23:39.415Z,58.03
2023-03-21T13:24:47.427Z,58.31
2023-03-21T13:25:52.468Z,59.10
2023-03-21T13:27:02.901Z,58.33
2023-03-21T13:28:06.071Z,59.10
2023-03-21T13:29:24.172Z,59.42
2023-03-21T13:30:29.943Z,59.94
2023-03-21T13:31:50.876Z,59.58
2023-03-21T13:33:05.839Z,60.12
2023-03-21T13:34:11.454Z,60.02
2023-03-21T13:35:18.324Z,59.65
2023-03-21T13:36:27.060Z,59.79
2023-03-21T13:37:35.280Z,60.17
2023-03-21T13:38:40.785Z,60.55
2023-03-21T13:39:46.105Z,60.89
2023-03-21T13:40:51.939Z,60.37
2023-03-21T13:41:56.246Z,60.17
2023-03-21T13:43:01.125Z,59.58
2023-03-21T13:44:17.511Z,58.35
2023-03-21T13:45:32.744Z,59.46
2023-03-21T13:46:53.425Z,58.64
2023-03-21T13:47:59.859Z,59.53
2023-03-21T13:49:15.333Z,58.42
2023-03-21T13:50:53.081Z,58.07
2023-03-21T13:51:57.133Z,58.16
2023-03-21T13:53:22.132Z,57.41
2023-03-21T13:54:31.365Z,58.08
2023-03-21T13:55:41.582Z,58.54
2023-03-21T13:56:53.600Z,60.22
2023-03-21T13:57:57.100Z,60.10
2023-03-21T13:59:03.273Z,59.71
2023-03-21T14:00:19.548Z,59.06
2023-03-21T14:01:29.061Z,58.19
2023-03-21T14:02:37.204Z,58.49
2023-03-21T14:03:42.719Z,59.16
2023-03-21T14:05:03.933Z,59.17
2023-03-21T14:06:09.642Z,60.72
2023-03-21T14:07:15.198Z,61.53
2023-03-21T14:08:31.237Z,62.37
2023-03-21T14:09:42.498Z,62.18
2023-03-21T14:10:49.255Z,62.24
2023-03-21T14:11:56.575Z,63.09
2023-03-21T14:13:02.916Z,63.15
2023-03-21T14:14:07.670Z,63.09
2023-03-21T14:15:20.570Z,63.54
2023-03-21T14:16:28.700Z,63.76
2023-03-21T14:17:36.383Z,64.11
2023-03-21T14:18:53.483Z,64.85
2023-03-21T14:19:59.167Z,64.37
2023-03-21T14:21:02.354Z,64.19
2023-03-21T14:22:12.375Z,64.67
2023-03-21T14:23:18.311Z,64.66
2023-03-21T14:24:22.544Z,64.68
2023-03-21T14:25:37.169Z,64.75
2023-03-21T14:26:51.168Z,64.85
2023-03-21T14:27:59.769Z,65.47
2023-03-21T14:29:09.653Z,66.69
2023-03-21T14:30:26.011Z,67.35
2023-03-21T14:31:29.729Z,67.36
2023-03-21T14:32:37.232Z,66.87
2023-03-21T14:33:44.443Z,67.47
2023-03-21T14:34:49.156Z,67.44
2023-03-21T14:35:52.982Z,67.35
2023-03-21T14:36:58.959Z,67.57